KCKB

North Central West Virginia Airport

Airport
ICAO code
KCKB
Summary
ICAO Region
NAM
ICAO Territory
Location

Clarksburg, West Virginia,

Coordinates
39° 17' 47" N , 80° 13' 41" W
KCC
Cfa
Airport WX
Cumulonimbus
Metar
Observation
KCKB 100153Z 00000KT 9SM FEW065 BKN075 24/22 A3008 RMK AO2 SLP170 T02390222
Station
Clarksburg, Clarksburg Benedum Airport
Date/Time
2022-08-10 01:53:00
Wind direction
Wind speed
00 kts
Lowest cloud amount
few clouds
Temperature
23.9°C
Dew point
22.2°C
Humidity
90%
Weather condition
n/a

Description

North Central West Virginia Airport is a joint use public and military airport located 2 km northeast of the central business district of Bridgeport, a city in Harrison County, West Virginia.

Climatology

Humid “subtropical” climate (Köppen climate classification Cfa) - characterized by hot, humid summers and cool winters. Significant amounts of precipitation occur in all seasons in most areas. Winter rainfall (and sometimes snowfall) is associated with large storms that the westerlies steer from west to east. Most summer rainfall occurs during thunderstorms.

Airport map

Aerial View

SKYbrary Partners:

Safety knowledge contributed by: